Time;durP1;ratioP1;P1;durP2;ratioP2;P2;SDS_P1;SDS_P2;PMS_P1;PMS_P2;Temp;Humidity;BMP_temperature;BMP_pressure;BME280_temperature;BME280_humidity;BME280_pressure;Samples;Min_cycle;Max_cycle;Signal;HPM_P1;HPM_P2
2021/06/18 00:00:39;;;;;;;4.77;1.90;;;;;;;20.22;100.00;100483.42;1755311;79;21036;-69
2021/06/18 00:03:06;;;;;;;7.23;2.27;;;;;;;20.16;100.00;100511.14;1714613;82;21035;-71
2021/06/18 00:05:33;;;;;;;9.03;2.70;;;;;;;20.03;100.00;100524.67;1742165;82;21149;-72
2021/06/18 00:07:59;;;;;;;5.90;2.27;;;;;;;19.90;100.00;100502.50;1743759;82;20962;-73
2021/06/18 00:10:27;;;;;;;5.27;3.00;;;;;;;19.84;100.00;100488.36;1743864;82;20970;-72
2021/06/18 00:12:55;;;;;;;4.27;2.20;;;;;;;19.74;100.00;100504.60;1742633;82;20879;-69
2021/06/18 00:15:22;;;;;;;4.57;2.10;;;;;;;19.58;100.00;100488.92;1743600;82;21045;-69
2021/06/18 00:17:50;;;;;;;5.70;2.70;;;;;;;19.55;100.00;100492.86;1742588;82;21022;-71
2021/06/18 00:20:17;;;;;;;4.17;2.00;;;;;;;19.52;100.00;100508.39;1745582;80;20982;-69
2021/06/18 00:22:43;;;;;;;4.80;2.30;;;;;;;19.47;100.00;100518.33;1743315;82;20978;-70
2021/06/18 00:25:11;;;;;;;7.47;2.90;;;;;;;19.41;100.00;100512.68;1743427;80;21425;-70
2021/06/18 00:27:37;;;;;;;5.90;2.30;;;;;;;19.47;100.00;100518.33;1743452;82;22203;-67
2021/06/18 00:30:06;;;;;;;4.00;2.20;;;;;;;19.41;100.00;100524.58;1738452;82;21589;-71
2021/06/18 00:32:32;;;;;;;6.57;2.60;;;;;;;19.37;100.00;100513.67;1725323;83;21906;-71
2021/06/18 00:34:59;;;;;;;5.30;2.80;;;;;;;19.36;100.00;100510.75;1725908;81;21042;-72
2021/06/18 00:37:26;;;;;;;6.67;2.77;;;;;;;19.36;100.00;100513.39;1725587;82;21042;-70
2021/06/18 00:39:52;;;;;;;4.60;2.90;;;;;;;19.63;100.00;100514.98;1725481;81;21559;-69
2021/06/18 00:42:19;;;;;;;6.63;2.30;;;;;;;19.55;100.00;100507.41;1725218;82;21138;-69
2021/06/18 00:44:45;;;;;;;4.57;2.20;;;;;;;19.55;100.00;100511.89;1727230;81;22056;-68
2021/06/18 00:47:19;;;;;;;7.20;2.50;;;;;;;19.49;100.00;100517.59;1726302;81;21019;-69
2021/06/18 00:49:46;;;;;;;7.13;2.43;;;;;;;19.44;100.00;100515.66;1724797;81;21002;-70
2021/06/18 00:52:13;;;;;;;5.77;2.40;;;;;;;19.40;100.00;100513.20;1695281;83;21023;-67
2021/06/18 00:54:41;;;;;;;7.20;2.27;;;;;;;19.43;100.00;100523.80;1725733;81;21155;-68
2021/06/18 00:57:08;;;;;;;4.70;2.50;;;;;;;19.43;100.00;100521.16;1726353;81;21082;-69
2021/06/18 00:59:35;;;;;;;3.83;2.33;;;;;;;19.48;100.00;100521.28;1725848;81;21003;-69
2021/06/18 01:02:02;;;;;;;6.13;2.30;;;;;;;19.45;100.00;100522.55;1726380;82;21082;-69
2021/06/18 01:04:29;;;;;;;4.63;2.37;;;;;;;19.42;100.00;100524.33;1719768;83;21075;-68
2021/06/18 01:07:02;;;;;;;4.37;1.90;;;;;;;19.50;100.00;100531.09;1695050;83;21160;-67
2021/06/18 01:09:34;;;;;;;4.87;2.30;;;;;;;19.47;100.00;100528.91;1715326;83;21588;-70
2021/06/18 01:12:06;;;;;;;5.53;1.87;;;;;;;19.65;100.00;100531.41;1696091;83;20920;-67
2021/06/18 01:14:39;;;;;;;5.40;2.27;;;;;;;19.65;100.00;100531.41;1715075;83;21112;-67
2021/06/18 01:17:25;;;;;;;5.33;2.33;;;;;;;19.63;100.00;100539.31;1716215;83;21063;-67
2021/06/18 01:20:18;;;;;;;6.13;2.10;;;;;;;19.50;100.00;100534.25;1715364;83;21127;-68
2021/06/18 01:22:46;;;;;;;6.10;2.40;;;;;;;19.72;100.00;100537.09;1714924;83;21071;-68
2021/06/18 01:25:17;;;;;;;5.63;2.17;;;;;;;19.87;100.00;100530.75;1695729;83;21060;-69
2021/06/18 01:27:48;;;;;;;6.90;2.37;;;;;;;19.71;100.00;100525.70;1714889;83;21496;-69
2021/06/18 01:30:17;;;;;;;6.50;2.52;;;;;;;19.70;100.00;100526.75;1715814;83;21244;-67
2021/06/18 01:32:58;;;;;;;5.20;2.70;;;;;;;19.78;100.00;100533.50;1715677;83;21723;-69
2021/06/18 01:35:27;;;;;;;5.35;2.45;;;;;;;19.73;100.00;100540.80;1715364;83;20992;-69
2021/06/18 01:37:56;;;;;;;6.87;2.70;;;;;;;19.75;100.00;100540.59;1696061;83;21022;-70
2021/06/18 01:40:24;;;;;;;4.43;2.50;;;;;;;19.86;100.00;100540.53;1715735;83;21462;-69
2021/06/18 01:42:51;;;;;;;7.73;2.97;;;;;;;19.85;100.00;100542.08;1715620;83;21527;-69
2021/06/18 01:45:19;;;;;;;5.40;3.07;;;;;;;19.74;100.00;100551.69;1695620;83;21835;-69
2021/06/18 01:47:46;;;;;;;6.03;2.70;;;;;;;19.80;100.00;100545.95;1715158;83;21501;-67
2021/06/18 01:50:16;;;;;;;8.30;2.60;;;;;;;19.88;100.00;100552.19;1746685;82;21470;-69
2021/06/18 01:52:47;;;;;;;4.80;2.60;;;;;;;19.82;100.00;100554.47;1712629;83;20959;-69
2021/06/18 01:55:14;;;;;;;7.22;2.62;;;;;;;19.69;100.00;100548.41;1757578;81;21037;-69
2021/06/18 01:57:40;;;;;;;4.80;2.97;;;;;;;19.69;100.00;100547.61;1711868;83;21138;-68
2021/06/18 02:00:08;;;;;;;7.00;3.00;;;;;;;19.77;100.00;100551.19;1756772;81;21048;-68
2021/06/18 02:02:41;;;;;;;6.17;3.00;;;;;;;19.75;100.00;100549.84;1713401;83;20976;-67
2021/06/18 02:05:09;;;;;;;7.03;2.90;;;;;;;19.79;100.00;100547.80;1745425;81;20928;-67
2021/06/18 02:07:35;;;;;;;8.37;3.43;;;;;;;19.75;100.00;100543.23;1753975;79;21555;-67
2021/06/18 02:10:06;;;;;;;7.13;3.13;;;;;;;19.73;100.00;100543.97;1691378;82;22568;-67
2021/06/18 02:12:33;;;;;;;8.68;3.60;;;;;;;19.69;100.00;100540.47;1755053;79;20899;-67
2021/06/18 02:15:01;;;;;;;7.37;2.70;;;;;;;19.78;100.00;100548.05;1714224;81;20987;-67
2021/06/18 02:17:28;;;;;;;6.03;3.00;;;;;;;19.80;100.00;100537.50;1755175;79;20932;-66
2021/06/18 02:19:55;;;;;;;9.07;3.60;;;;;;;20.00;100.00;100535.76;1749518;79;21333;-67
2021/06/18 02:22:22;;;;;;;7.17;3.40;;;;;;;20.11;100.00;100534.86;1714395;81;22031;-68
2021/06/18 02:24:49;;;;;;;6.40;3.30;;;;;;;20.13;100.00;100535.97;1753327;80;21540;-68
2021/06/18 02:27:15;;;;;;;9.40;3.90;;;;;;;20.16;100.00;100540.26;1715873;81;21003;-69
2021/06/18 02:29:42;;;;;;;6.67;3.33;;;;;;;19.95;100.00;100539.62;1754338;79;21067;-67
2021/06/18 02:32:12;;;;;;;6.70;3.03;;;;;;;20.10;100.00;100539.88;1712374;82;21130;-67
2021/06/18 02:34:38;;;;;;;6.00;3.30;;;;;;;20.04;100.00;100540.86;1754875;79;21123;-68
2021/06/18 02:37:06;;;;;;;5.03;2.63;;;;;;;19.83;100.00;100541.00;1715744;81;21019;-68
2021/06/18 02:39:32;;;;;;;8.60;3.73;;;;;;;19.84;100.00;100549.73;1752659;81;21073;-68
2021/06/18 02:41:59;;;;;;;8.47;3.40;;;;;;;19.72;100.00;100550.31;1712761;81;21591;-68
2021/06/18 02:44:26;;;;;;;5.60;2.93;;;;;;;19.73;100.00;100546.62;1710688;81;21109;-68
2021/06/18 02:47:18;;;;;;;7.03;3.20;;;;;;;19.69;100.00;100549.73;1753460;79;21138;-67
2021/06/18 02:50:10;;;;;;;8.40;3.93;;;;;;;19.74;100.00;100550.37;1714679;81;21940;-67
2021/06/18 02:53:00;;;;;;;6.00;3.10;;;;;;;19.77;100.00;100549.07;1752980;80;20899;-67
2021/06/18 02:55:44;;;;;;;5.83;2.93;;;;;;;20.03;100.00;100552.45;1713617;81;21022;-69
2021/06/18 02:58:23;;;;;;;5.37;3.13;;;;;;;19.85;100.00;100548.69;1675220;85;21038;-67
2021/06/18 03:00:49;;;;;;;5.67;3.37;;;;;;;19.81;100.00;100556.32;1747459;77;21131;-70
2021/06/18 03:03:22;;;;;;;5.37;3.20;;;;;;;19.78;100.00;100548.86;1872835;75;21490;-71
2021/06/18 03:05:49;;;;;;;5.50;2.87;;;;;;;19.82;100.00;100549.19;1880084;76;20973;-70
2021/06/18 03:08:16;;;;;;;4.83;2.53;;;;;;;19.80;100.00;100557.86;1852978;76;20872;-71
2021/06/18 03:10:46;;;;;;;5.23;2.93;;;;;;;19.80;100.00;100560.51;1823979;77;21031;-68
2021/06/18 03:13:26;;;;;;;6.63;2.83;;;;;;;19.84;100.00;100554.50;1796253;79;21181;-70
2021/06/18 03:15:52;;;;;;;6.07;2.20;;;;;;;19.88;100.00;100558.80;1869350;76;20927;-69
2021/06/18 03:18:22;;;;;;;5.27;2.63;;;;;;;20.15;100.00;100563.80;1811470;77;21008;-70
2021/06/18 03:20:55;;;;;;;5.57;2.47;;;;;;;20.04;100.00;100564.67;1807648;77;21062;-68
2021/06/18 03:23:22;;;;;;;5.27;2.73;;;;;;;20.07;100.00;100572.11;1871273;76;21801;-69
2021/06/18 03:25:48;;;;;;;6.93;2.67;;;;;;;20.13;100.00;100567.20;1872464;76;21130;-72
2021/06/18 03:28:15;;;;;;;5.03;2.60;;;;;;;20.12;100.00;100572.74;1832188;77;20905;-71
2021/06/18 03:30:48;;;;;;;4.03;2.20;;;;;;;20.14;100.00;100565.35;1753955;79;20947;-67
2021/06/18 03:33:14;;;;;;;5.13;2.60;;;;;;;20.13;100.00;100556.61;1857463;76;21114;-68
2021/06/18 03:35:41;;;;;;;5.70;2.70;;;;;;;20.16;100.00;100550.84;1881959;76;21011;-71
2021/06/18 03:38:08;;;;;;;3.77;2.43;;;;;;;20.26;100.00;100559.98;1882167;76;21144;-70
2021/06/18 03:40:36;;;;;;;3.73;2.43;;;;;;;20.26;100.00;100570.05;1873907;76;21003;-66
2021/06/18 03:43:02;;;;;;;5.33;2.60;;;;;;;20.33;100.00;100575.20;1767242;78;20990;-71
2021/06/18 03:45:31;;;;;;;5.20;2.80;;;;;;;20.42;100.00;100575.10;1801008;78;21008;-72
2021/06/18 03:47:59;;;;;;;4.13;2.20;;;;;;;20.46;100.00;100584.17;1860496;76;20980;-68
2021/06/18 03:50:26;;;;;;;8.13;3.00;;;;;;;20.43;100.00;100589.14;1858105;76;21114;-68
2021/06/18 03:52:53;;;;;;;7.27;3.00;;;;;;;20.38;100.00;100585.37;1807059;78;21042;-69
2021/06/18 03:55:21;;;;;;;4.37;2.10;;;;;;;20.39;100.00;100583.52;1856243;76;20939;-68
2021/06/18 03:57:48;;;;;;;5.77;2.70;;;;;;;20.34;100.00;100583.41;1869087;75;20979;-71
2021/06/18 04:00:17;;;;;;;6.63;2.40;;;;;;;20.33;100.00;100584.47;1864959;76;21521;-69
2021/06/18 04:02:44;;;;;;;6.77;2.57;;;;;;;20.32;100.00;100583.66;1804815;78;21102;-70
2021/06/18 04:05:14;;;;;;;6.53;3.20;;;;;;;20.38;100.00;100582.72;1798195;78;21046;-69
2021/06/18 04:07:46;;;;;;;5.40;2.83;;;;;;;20.40;100.00;100586.44;1827170;77;21026;-70
2021/06/18 04:10:14;;;;;;;;;;;;;;;20.50;100.00;100602.53;1825613;78;20971;-69
2021/06/18 04:12:42;;;;;;;5.73;4.03;;;;;;;20.49;100.00;100604.88;1816866;78;20163;-70
2021/06/18 04:15:11;;;;;;;10.17;3.53;;;;;;;20.55;100.00;100610.55;1822306;77;22088;-69
2021/06/18 04:17:41;;;;;;;4.43;2.93;;;;;;;20.61;100.00;100619.40;1793753;78;20979;-68
2021/06/18 04:20:10;;;;;;;5.73;3.53;;;;;;;20.62;100.00;100619.67;1814077;78;20977;-71
2021/06/18 04:22:36;;;;;;;8.43;3.60;;;;;;;20.60;100.00;100619.89;1810373;78;21082;-68
2021/06/18 04:25:05;;;;;;;8.23;3.50;;;;;;;20.69;100.00;100616.87;1803420;79;21041;-68
2021/06/18 04:27:33;;;;;;;7.33;3.70;;;;;;;20.69;100.00;100622.17;1801222;78;21215;-68
2021/06/18 04:30:00;;;;;;;8.77;3.43;;;;;;;20.70;100.00;100617.94;1864228;76;20991;-68
2021/06/18 04:32:26;;;;;;;9.17;4.53;;;;;;;20.69;100.00;100619.52;1847333;76;21085;-67
2021/06/18 04:34:53;;;;;;;7.27;4.37;;;;;;;20.67;100.00;100616.30;1799731;78;21063;-68
2021/06/18 04:37:19;;;;;;;6.97;4.80;;;;;;;20.70;100.00;100594.62;1821218;77;21540;-69
2021/06/18 04:39:46;;;;;;;8.77;3.83;;;;;;;20.78;100.00;100598.98;1778615;79;21741;-66
2021/06/18 04:42:13;;;;;;;9.10;4.03;;;;;;;20.80;100.00;100593.47;1779635;77;21522;-67
2021/06/18 04:44:40;;;;;;;5.17;3.60;;;;;;;20.83;100.00;100596.41;1774635;78;21032;-67
2021/06/18 04:47:07;;;;;;;9.53;3.90;;;;;;;20.97;100.00;100592.91;1800897;78;20967;-68
2021/06/18 04:49:33;;;;;;;9.87;4.70;;;;;;;21.04;100.00;100597.52;1800797;79;20936;-69
2021/06/18 04:52:00;;;;;;;5.63;3.60;;;;;;;21.08;100.00;100593.86;1785618;78;21100;-68
2021/06/18 04:54:27;;;;;;;7.07;4.20;;;;;;;21.16;100.00;100604.56;1796755;78;20964;-68
2021/06/18 04:56:54;;;;;;;9.97;4.07;;;;;;;21.17;100.00;100604.84;1803884;79;20920;-69
2021/06/18 04:59:21;;;;;;;7.37;4.00;;;;;;;21.13;100.00;100621.22;1797154;79;20949;-69
2021/06/18 05:01:48;;;;;;;7.67;3.87;;;;;;;21.08;100.00;100628.31;1828855;77;20983;-70
2021/06/18 05:04:15;;;;;;;6.87;3.83;;;;;;;21.13;100.00;100636.33;1864877;76;21130;-69
2021/06/18 05:06:42;;;;;;;8.00;4.20;;;;;;;20.96;100.00;100649.61;1870912;76;21057;-68
2021/06/18 05:09:08;;;;;;;8.13;4.33;;;;;;;21.02;100.00;100654.45;1858693;76;21328;-69
2021/06/18 05:11:35;;;;;;;6.40;4.03;;;;;;;20.88;100.00;100663.27;1866481;76;21461;-70
2021/06/18 05:14:02;;;;;;;9.53;4.43;;;;;;;20.94;100.00;100664.94;1884039;75;20958;-70
2021/06/18 05:16:29;;;;;;;9.43;4.20;;;;;;;20.75;100.00;100676.83;1882077;75;21146;-69
2021/06/18 05:18:56;;;;;;;5.73;4.27;;;;;;;20.92;100.00;100683.47;1866961;76;20993;-70
2021/06/18 05:21:23;;;;;;;5.73;4.67;;;;;;;20.74;100.00;100679.20;1882856;75;20926;-71
2021/06/18 05:23:50;;;;;;;8.43;4.07;;;;;;;20.70;100.00;100679.40;1865894;76;21507;-71
2021/06/18 05:26:17;;;;;;;9.23;5.20;;;;;;;20.68;100.00;100688.09;1883961;75;20864;-71
2021/06/18 05:28:43;;;;;;;8.67;4.47;;;;;;;20.53;100.00;100688.14;1881803;75;21126;-71
2021/06/18 05:31:11;;;;;;;6.53;4.20;;;;;;;20.47;100.00;100693.02;1872557;75;21057;-71
2021/06/18 05:33:37;;;;;;;6.97;4.43;;;;;;;20.49;100.00;100704.19;1819672;77;21000;-73
2021/06/18 05:36:05;;;;;;;8.17;5.10;;;;;;;20.39;100.00;100706.64;1858933;76;21618;-73
2021/06/18 05:38:31;;;;;;;6.50;4.23;;;;;;;20.34;100.00;100712.66;1819244;78;21497;-71
2021/06/18 05:40:58;;;;;;;6.83;3.97;;;;;;;20.31;100.00;100717.09;1867874;75;21113;-72
2021/06/18 05:43:24;;;;;;;6.40;4.50;;;;;;;20.34;100.00;100720.59;1858643;76;21022;-72
2021/06/18 05:45:52;;;;;;;5.83;4.80;;;;;;;20.31;100.00;100717.61;1862609;75;21057;-71
2021/06/18 05:48:18;;;;;;;7.27;4.53;;;;;;;20.32;100.00;100721.34;1861616;75;21473;-71
2021/06/18 05:50:45;;;;;;;8.83;5.23;;;;;;;20.39;100.00;100729.15;1860461;76;21532;-72
2021/06/18 05:53:11;;;;;;;7.97;4.77;;;;;;;20.45;100.00;100725.53;1858545;76;22084;-72
2021/06/18 05:55:38;;;;;;;7.50;4.17;;;;;;;20.52;100.00;100724.11;1866120;76;21450;-72
2021/06/18 05:58:05;;;;;;;6.40;4.67;;;;;;;20.45;100.00;100720.77;1873503;75;20974;-75
2021/06/18 06:00:31;;;;;;;9.73;4.47;;;;;;;20.60;100.00;100716.58;1857697;76;21465;-73
2021/06/18 06:02:59;;;;;;;4.93;4.03;;;;;;;20.55;100.00;100731.06;1868760;75;21050;-75
2021/06/18 06:05:26;;;;;;;7.77;4.50;;;;;;;20.56;100.00;100725.23;1850588;76;22420;-75
2021/06/18 06:07:53;;;;;;;6.23;3.97;;;;;;;20.52;100.00;100732.05;1847526;76;21021;-74
2021/06/18 06:10:22;;;;;;;7.13;4.57;;;;;;;20.57;100.00;100721.54;1857866;76;22212;-73
2021/06/18 06:12:49;;;;;;;5.97;4.83;;;;;;;20.59;100.00;100716.83;1872001;76;21003;-69
2021/06/18 06:15:15;;;;;;;13.37;5.67;;;;;;;20.53;100.00;100727.86;1832024;76;20829;-73
2021/06/18 06:17:46;;;;;;;7.33;4.57;;;;;;;20.44;100.00;100721.29;1811484;77;21056;-76
2021/06/18 06:20:14;;;;;;;8.03;4.73;;;;;;;20.48;100.00;100713.67;1791986;79;21481;-75
2021/06/18 06:22:40;;;;;;;7.00;4.23;;;;;;;20.45;100.00;100688.98;1802100;79;20900;-77
2021/06/18 06:25:09;;;;;;;9.30;4.30;;;;;;;20.44;100.00;100708.05;1789269;79;21466;-72
2021/06/18 06:27:35;;;;;;;7.87;4.60;;;;;;;20.46;100.00;100713.92;1791189;79;21044;-71
2021/06/18 06:30:04;;;;;;;9.30;4.63;;;;;;;20.47;100.00;100712.88;1795258;79;21419;-74
2021/06/18 06:32:31;;;;;;;6.90;3.97;;;;;;;20.51;100.00;100714.04;1793219;79;21242;-73
2021/06/18 06:34:58;;;;;;;9.00;3.97;;;;;;;20.55;100.00;100708.55;1794297;79;21020;-74
2021/06/18 06:37:26;;;;;;;7.47;3.87;;;;;;;20.76;100.00;100697.80;1786417;79;20999;-71
2021/06/18 06:39:53;;;;;;;10.13;3.73;;;;;;;20.78;100.00;100690.92;1796752;79;22008;-71
2021/06/18 06:42:20;;;;;;;8.37;4.17;;;;;;;20.53;100.00;100689.45;1798650;79;22599;-72
2021/06/18 06:44:48;;;;;;;8.03;3.03;;;;;;;20.47;100.00;100687.72;1801780;79;21044;-73
2021/06/18 06:47:15;;;;;;;8.97;3.57;;;;;;;20.52;100.00;100697.63;1803493;79;20976;-72
2021/06/18 06:49:44;;;;;;;5.70;3.47;;;;;;;20.55;100.00;100698.48;1798613;79;20971;-71
2021/06/18 06:52:10;;;;;;;7.67;3.73;;;;;;;20.59;100.00;100700.93;1867249;76;20943;-72
2021/06/18 06:54:36;;;;;;;7.67;3.27;;;;;;;20.71;100.00;100692.39;1830245;78;21070;-72
2021/06/18 06:57:03;;;;;;;6.13;2.70;;;;;;;20.85;100.00;100679.65;1823565;78;20908;-72
2021/06/18 06:59:30;;;;;;;5.40;2.70;;;;;;;20.96;100.00;100684.06;1778438;79;20939;-71
2021/06/18 07:01:56;;;;;;;5.70;2.27;;;;;;;21.21;100.00;100688.14;1805715;78;22138;-72
2021/06/18 07:04:23;;;;;;;7.80;2.43;;;;;;;21.39;100.00;100699.84;1817155;78;21381;-72
2021/06/18 07:06:51;;;;;;;8.97;2.40;;;;;;;21.65;100.00;100696.22;1810387;78;20871;-75
2021/06/18 07:09:18;;;;;;;5.37;2.60;;;;;;;22.04;100.00;100703.05;1785384;79;20943;-75
2021/06/18 07:11:44;;;;;;;5.73;2.67;;;;;;;22.32;100.00;100695.97;1776833;80;20971;-68
2021/06/18 07:14:10;;;;;;;3.87;2.53;;;;;;;22.68;100.00;100694.44;1782229;79;21278;-76
2021/06/18 07:16:39;;;;;;;4.27;1.97;;;;;;;22.85;100.00;100696.20;1788134;79;20967;-76
2021/06/18 07:19:05;;;;;;;4.17;2.13;;;;;;;22.91;100.00;100697.31;1784160;79;21220;-75
2021/06/18 07:21:32;;;;;;;5.33;2.37;;;;;;;23.05;100.00;100689.19;1782859;79;21571;-76
2021/06/18 07:23:59;;;;;;;4.17;2.27;;;;;;;23.11;100.00;100681.23;1781480;79;21512;-77
2021/06/18 07:26:26;;;;;;;7.37;2.50;;;;;;;23.29;100.00;100682.16;1793677;79;22431;-79
2021/06/18 07:28:53;;;;;;;8.17;3.27;;;;;;;23.39;100.00;100680.89;1787094;79;21567;-78
2021/06/18 07:31:21;;;;;;;4.77;2.90;;;;;;;23.45;100.00;100680.38;1799874;78;21030;-76
2021/06/18 07:33:48;;;;;;;4.63;3.20;;;;;;;23.66;100.00;100680.79;1810793;78;21037;-67
2021/06/18 07:36:15;;;;;;;5.00;2.73;;;;;;;23.55;100.00;100678.58;1805736;79;21069;-78
2021/06/18 07:38:42;;;;;;;5.13;2.80;;;;;;;23.51;100.00;100676.70;1808909;78;21521;-78
2021/06/18 07:41:09;;;;;;;6.33;3.43;;;;;;;23.53;100.00;100671.39;1813427;78;21037;-77
2021/06/18 07:43:36;;;;;;;6.87;2.70;;;;;;;23.48;100.00;100670.55;1806663;78;21183;-78
2021/06/18 07:46:02;;;;;;;6.10;2.77;;;;;;;23.43;100.00;100675.33;1814109;78;21512;-77
2021/06/18 07:48:30;;;;;;;5.23;2.77;;;;;;;23.46;100.00;100666.84;1812844;78;20974;-78
2021/06/18 07:50:58;;;;;;;4.77;2.50;;;;;;;23.63;100.00;100659.19;1796311;78;21043;-77
2021/06/18 07:53:24;;;;;;;4.63;2.30;;;;;;;23.82;100.00;100657.69;1809823;78;21484;-73
2021/06/18 07:55:53;;;;;;;6.70;2.50;;;;;;;24.20;100.00;100657.78;1805434;78;21146;-66
2021/06/18 07:58:20;;;;;;;6.80;2.63;;;;;;;24.51;100.00;100654.67;1807595;78;21434;-66
2021/06/18 08:00:47;;;;;;;6.23;2.60;;;;;;;24.85;100.00;100646.14;1812306;78;21379;-74
2021/06/18 08:03:14;;;;;;;5.80;2.23;;;;;;;24.86;100.00;100647.73;1812168;78;20912;-76
2021/06/18 08:05:40;;;;;;;4.00;2.53;;;;;;;25.28;100.00;100645.81;1872462;75;21030;-72
2021/06/18 08:08:07;;;;;;;5.60;2.50;;;;;;;26.03;100.00;100625.75;1818280;78;21658;-66
2021/06/18 08:10:34;;;;;;;3.77;2.03;;;;;;;25.97;100.00;100627.64;1866619;75;20886;-68
2021/06/18 08:13:01;;;;;;;4.45;2.40;;;;;;;26.17;100.00;100624.03;1874429;75;21074;-72
2021/06/18 08:15:27;;;;;;;5.03;2.67;;;;;;;26.53;100.00;100621.92;1795872;78;21035;-74
2021/06/18 08:17:54;;;;;;;8.28;3.05;;;;;;;26.98;100.00;100619.11;1882707;75;20927;-74
2021/06/18 08:20:22;;;;;;;4.42;2.40;;;;;;;27.43;100.00;100612.47;1871308;75;21099;-71
2021/06/18 08:22:49;;;;;;;3.83;2.77;;;;;;;28.04;100.00;100614.88;1870483;75;20911;-72
2021/06/18 08:25:15;;;;;;;6.20;3.30;;;;;;;28.04;100.00;100614.88;1832389;77;21451;-72
2021/06/18 08:27:42;;;;;;;3.83;2.02;;;;;;;28.28;100.00;100607.52;1880709;75;22355;-73
2021/06/18 08:30:09;;;;;;;5.72;3.10;;;;;;;28.37;100.00;100610.34;1817155;77;21125;-70
2021/06/18 08:32:36;;;;;;;6.05;2.72;;;;;;;28.90;100.00;100599.77;1805508;77;21770;-65
2021/06/18 08:35:03;;;;;;;4.22;3.10;;;;;;;29.35;100.00;100603.47;1801365;79;21501;-69
2021/06/18 08:37:30;;;;;;;5.20;2.62;;;;;;;29.53;100.00;100600.41;1824809;77;21512;-70
2021/06/18 08:39:57;;;;;;;4.35;2.98;;;;;;;29.64;100.00;100596.44;1871033;75;20991;-71
2021/06/18 08:42:25;;;;;;;5.45;3.15;;;;;;;29.70;100.00;100601.96;1856747;75;21062;-73
2021/06/18 08:44:52;;;;;;;4.67;2.87;;;;;;;29.69;100.00;100607.06;1859453;75;21142;-67
2021/06/18 08:47:19;;;;;;;4.03;3.22;;;;;;;29.95;100.00;100597.09;1854826;75;20980;-73
2021/06/18 08:49:46;;;;;;;6.05;3.05;;;;;;;30.81;100.00;100604.16;1863836;75;21020;-72
2021/06/18 08:52:13;;;;;;;4.60;2.65;;;;;;;31.56;100.00;100598.27;1808750;78;20899;-69
2021/06/18 08:54:43;;;;;;;5.75;3.02;;;;;;;31.82;100.00;100598.28;1862741;75;20970;-64
2021/06/18 08:57:18;;;;;;;;;;;;;;;31.65;100.00;100589.64;1866606;75;21353;-70
2021/06/18 08:59:45;;;;;;;4.92;3.08;;;;;;;31.54;100.00;100585.12;1857642;75;20422;-71
2021/06/18 09:02:13;;;;;;;5.42;2.65;;;;;;;31.50;100.00;100589.55;1828840;77;20987;-71
2021/06/18 09:05:02;;;;;;;6.30;2.95;;;;;;;31.37;100.00;100583.77;1878001;75;20986;-67
2021/06/18 09:07:29;;;;;;;5.78;2.85;;;;;;;30.97;100.00;100576.50;1855869;75;21030;-70
2021/06/18 09:09:55;;;;;;;4.55;2.83;;;;;;;30.66;100.00;100582.45;1851887;76;21082;-69
2021/06/18 09:12:22;;;;;;;3.70;2.47;;;;;;;30.60;100.00;100585.81;1870603;75;20954;-70
2021/06/18 09:14:49;;;;;;;3.40;2.70;;;;;;;30.51;100.00;100589.81;1884121;75;20982;-71
2021/06/18 09:17:27;;;;;;;3.85;2.60;;;;;;;30.64;100.00;100586.78;1872293;75;20946;-72
2021/06/18 09:19:57;;;;;;;3.20;2.40;;;;;;;30.77;100.00;100584.59;1878477;75;20974;-72
2021/06/18 09:22:41;;;;;;;7.17;2.47;;;;;;;31.00;100.00;100579.13;1879815;75;21106;-67
2021/06/18 09:25:13;;;;;;;3.72;2.20;;;;;;;31.34;100.00;100576.31;1883223;75;20975;-71
2021/06/18 09:27:49;;;;;;;4.70;2.12;;;;;;;31.68;100.00;100572.29;1870289;75;21049;-72
2021/06/18 09:30:22;;;;;;;6.17;2.10;;;;;;;31.74;100.00;100570.21;1876053;75;21677;-69
2021/06/18 09:33:09;;;;;;;4.10;2.00;;;;;;;31.79;100.00;100573.33;1806955;78;22119;-69
2021/06/18 09:35:35;;;;;;;4.45;2.37;;;;;;;32.55;100.00;100571.41;1815654;78;22165;-66
2021/06/18 09:38:04;;;;;;;4.22;2.27;;;;;;;33.03;100.00;100573.73;1816401;78;20993;-71
2021/06/18 09:40:31;;;;;;;3.93;1.83;;;;;;;33.31;100.00;100578.67;1795037;78;21003;-72
2021/06/18 09:43:11;;;;;;;5.30;2.02;;;;;;;33.49;100.00;100573.41;1879730;75;20923;-72
2021/06/18 09:45:40;;;;;;;4.00;2.27;;;;;;;33.50;100.00;100572.27;1817167;77;20887;-73
2021/06/18 09:48:13;;;;;;;6.25;2.02;;;;;;;33.98;100.00;100561.98;1860996;75;21042;-71
2021/06/18 09:50:44;;;;;;;4.20;2.12;;;;;;;34.21;100.00;100559.17;1874177;75;21066;-71
2021/06/18 09:53:22;;;;;;;7.42;2.00;;;;;;;33.96;100.00;100556.13;1862996;75;21034;-66
2021/06/18 09:56:07;;;;;;;3.90;1.57;;;;;;;33.96;100.00;100555.56;1795439;78;21015;-75
2021/06/18 09:58:39;;;;;;;3.10;1.60;;;;;;;33.38;100.00;100551.34;1856191;75;20991;-73
2021/06/18 10:01:20;;;;;;;5.87;1.75;;;;;;;32.76;100.00;100555.27;1880006;75;21106;-74
2021/06/18 10:03:59;;;;;;;2.77;1.52;;;;;;;32.50;100.00;100549.41;1872360;75;20997;-71
2021/06/18 10:06:30;;;;;;;5.42;1.70;;;;;;;32.04;100.00;100557.69;1860729;76;20828;-66
2021/06/18 10:08:57;;;;;;;3.33;1.42;;;;;;;31.38;100.00;100557.84;1862657;76;20943;-71
2021/06/18 10:11:25;;;;;;;2.83;1.80;;;;;;;31.14;100.00;100566.34;1849651;76;20900;-70
2021/06/18 10:13:53;;;;;;;4.55;2.00;;;;;;;31.00;100.00;100565.11;1862247;76;21128;-69
2021/06/18 10:16:22;;;;;;;3.02;1.70;;;;;;;31.13;100.00;100566.08;1840326;76;21481;-64
2021/06/18 10:18:50;;;;;;;4.00;2.10;;;;;;;30.61;100.00;100561.05;1875341;76;20982;-72
2021/06/18 10:21:17;;;;;;;4.67;1.80;;;;;;;30.71;100.00;100560.22;1862379;76;21042;-69
2021/06/18 10:23:45;;;;;;;2.77;1.80;;;;;;;30.87;100.00;100557.14;1797867;78;21040;-69
2021/06/18 10:26:13;;;;;;;5.70;1.85;;;;;;;30.92;100.00;100554.33;1865773;76;21080;-63
2021/06/18 10:28:40;;;;;;;3.08;1.60;;;;;;;31.13;100.00;100555.31;1786667;76;21044;-68
2021/06/18 10:31:08;;;;;;;3.83;1.77;;;;;;;30.83;100.00;100558.87;1805960;79;21259;-70
2021/06/18 10:33:38;;;;;;;4.17;1.57;;;;;;;30.12;100.00;100554.73;1797542;79;21540;-69
2021/06/18 10:36:22;;;;;;;3.65;1.40;;;;;;;30.13;100.00;100559.03;1797793;79;21481;-71
2021/06/18 10:39:08;;;;;;;4.08;1.65;;;;;;;29.64;100.00;100555.35;1783546;77;22435;-68
2021/06/18 10:41:45;;;;;;;3.62;1.42;;;;;;;29.45;100.00;100559.50;1787961;79;21411;-64
2021/06/18 10:44:12;;;;;;;4.15;1.70;;;;;;;29.14;100.00;100564.17;1804581;77;20880;-64
2021/06/18 10:46:42;;;;;;;3.98;1.72;;;;;;;28.70;100.00;100558.81;1860084;76;20932;-71
2021/06/18 10:49:12;;;;;;;6.10;1.90;;;;;;;28.46;100.00;100560.88;1829468;76;20915;-69
2021/06/18 10:51:50;;;;;;;3.92;1.98;;;;;;;28.28;100.00;100556.58;1863936;76;21102;-71
2021/06/18 10:54:26;;;;;;;4.30;2.12;;;;;;;28.26;100.00;100555.27;1800938;78;20972;-73
2021/06/18 10:57:08;;;;;;;2.92;1.92;;;;;;;28.52;100.00;100553.77;1785042;79;20963;-69
2021/06/18 10:59:48;;;;;;;6.17;1.75;;;;;;;28.24;100.00;100566.30;1830355;77;21256;-72
2021/06/18 11:02:26;;;;;;;4.00;1.75;;;;;;;28.03;100.00;100543.59;1858703;76;20955;-71
2021/06/18 11:05:03;;;;;;;3.62;2.00;;;;;;;28.20;100.00;100559.14;1833493;76;21926;-67
2021/06/18 11:07:39;;;;;;;3.35;2.05;;;;;;;27.89;100.00;100567.13;1783370;80;21042;-72
2021/06/18 11:10:17;;;;;;;3.80;2.00;;;;;;;27.60;100.00;100571.25;1766687;80;21110;-70
2021/06/18 11:12:48;;;;;;;4.58;2.45;;;;;;;27.51;100.00;100577.56;1810328;78;21015;-75
2021/06/18 11:15:27;;;;;;;6.17;2.00;;;;;;;27.65;100.00;100578.41;1826153;78;20961;-69
2021/06/18 11:18:03;;;;;;;4.85;2.10;;;;;;;27.74;100.00;100592.80;1832791;78;21221;-70
2021/06/18 11:20:39;;;;;;;3.33;2.42;;;;;;;27.33;100.00;100588.48;1816718;78;21472;-68
2021/06/18 11:23:17;;;;;;;5.40;2.00;;;;;;;26.68;100.00;100591.58;1821142;78;21054;-67
2021/06/18 11:25:48;;;;;;;4.03;2.60;;;;;;;26.18;100.00;100618.97;1821882;78;21131;-69